PILOTS ONLINE: 582    ATC ONLINE: 131

KNXP - Twentynine Palms (Self) Airport

Location

City Twentynine Palms
Country  United States
Latitude 34° 17' 46" N
Longitude 116° 9' 43" W
Elevation 2051 ft
Type Medium Airport

Runways

10/28 8015 ft / 150 ft

Weather

METAR
2014/07/24 18:56
KNXP 241856Z 15004KT 10SM FEW200 40/M01 A2994 RMK AO2 SLP095 T04001006 
TAF
2014/07/24 18:13
TAF 
      AMD KNXP 2418/2515 VRB05KT 9999 FEW200 QNH2988INS 
      BECMG 2421/2423 21010KT 9999 SCT150 QNH2983INS 
      TEMPO 2423/2505 23012G22KT 
     FM250700 VRB05KT 9999 FEW150 BKN200 QNH2987INS T41/2500Z T27/2513Z 
      AMD 1800

Outbound flights

Inbound flights